YILA weather

Milawa Vineyard Airport
Victoria, Australia

Public forecast

Using degrees Celsius for public forecast. Weather courtesy of forecast.io.

METAR (pilot weather report)

Closest report is Wangaratta Airport, 6.6 nm (12.1 km) WNW. Retrieved 2019/03/22 21:00 UTC (58 minutes ago):

YWGT 222100Z AUTO 00000KT 9999 // NCD 17/15 Q1011

TAF (pilot weather forecast)

Closest forecast is Wangaratta Airport, 6.6 nm (12.1 km) WNW. Retrieved 2019/03/22 19:03 UTC (3 hours ago):

TAF YWGT 221804Z 2219/2308 09003KT CAVOK FM230100 08012KT CAVOK